Share

Almagrundet, Sweden

ITROUVIL2 Elev 10 ft | 59.28 °N, 18.93 °E | Change Station

Current weather conditions updated 3 minutes ago

Scattered Clouds
Scattered Clouds
37.0 °F
Feels Like 37 °F
N
0.0
Wind Variable Wind from SSE
Gusts 0.0 mph
Sunrise 5:21 AM
Sunset 8:05 PM
Moon Waning Gibbous

Tomorrow is forecast to be nearly the same temperature as today.

Pressure 30.04 in
Visibility 6.2 miles
Clouds Scattered Clouds 4000 ft
Windchill 37 °F
Dew Point 37 °F
Humidity 100%
Rainfall 0.00 in
Snow Depth Not available.
UV 1 out of 16
Pollen Not available.
Air Quality Not available.
Flu Activity Not available.
METAR ESSB 181620Z 23003KT 200V260 9999 SCT040 11/05 Q1017

More Conditions Fewer Conditions

Pressure 30.04 in
Visibility 6.2 miles
Clouds Scattered Clouds 4000 ft
Windchill 37 °F
Dew Point 37 °F
Humidity 100%
Rainfall 0.00 in
Snow Depth Not available.
UV 1 out of 16
Pollen Not available.
Air Quality Not available.
Flu Activity Not available.
METAR ESSB 181620Z 23003KT 200V260 9999 SCT040 11/05 Q1017

More Conditions Fewer Conditions

10-Day Forecast

Almanac

Astronomy

Apr. 18, 2014 Rise Set
Actual Time 5:21 AM CEST 8:05 PM CEST
Civil Twilight 4:36 AM CEST 8:51 PM CEST
Nautical Twilight 3:35 AM CEST 9:53 PM CEST
Astronomical Twilight 2:08 AM CEST 11:23 PM CEST
Moon No Moon Rise 6:56 AM CEST
Length of Visible Light 16h 15m
Length of Day
14h 44m
Tomorrow will be 5m 11s longer.
Waning Gibbous, 87% of the Moon is Illuminated
Today
Waning Gibbous
Apr 22
Last Quarter
Apr 29
New
May 6
First Quarter
May 14
Full

Today's Extremes

Country Highs Country Lows

Community

  • What's for Lunch?
    What's for Lunch?
  • SUNRISE THROUGH THE TREES.
    SUNRISE THROUGH THE TREES.
  • Dog Wood Blossoms
    Dog Wood Blossoms
  • Morning Light
    Morning Light
  • New Day
    New Day

WunderPhotos

Upload Photos

1,702,408 photos uploaded!

Nearby

Snow Depth

Not available.

Coastal Water Temperatures

Place Temperature
No Stations Reporting

Earthquake Activity

City Distance Mag. Time & Date
No recent earthquake activity has been reported nearby.
Minimum magnitude displayed is 2.5.

Nearby Weather Stations

Station Location Temp. Windchill Dew Point Humidity Wind Precip. Elev Updated Type
Sandhamn 37.0 °F 37 °F 37 °F 100% SSE  at  0.0 mph 0.00 in / hr 10 ft 6:40 PM CEST Normal
Saltaro, Saltaro 52.5 °F - 40 °F 62% SE  at  0.7 mph 0.00 in / hr 46 ft 6:43 PM CEST Normal
Abborrkroken 48.5 °F 48 °F 41 °F 76% East  at  0.0 mph 0.00 in / hr 75 ft 6:43 PM CEST Rapid Fire
L. Ravson, Stockholm Archipelago 49.5 °F 50 °F 42 °F 75% South  at  1.0 mph - / hr 66 ft 6:33 PM CEST Normal

Show More Stations Show Fewer Stations

What do you think?

We're not finished. Please let us know what you like, what you don't like, and what you are still missing.